Youngstown, OH

12:09 PM EST die 21o November, anno 2017 (GMT -0500)
Downtown Youngstown | | Change Station

Elev 873 ft 41.10 °N, 80.65 °W | Updated 4 seconds ago

Partialiter Nubila
Partialiter Nubila
52.0 °F
Feels Like 52.0 °F
N
1.0
Ventus Variabilis Ventus from Magis Auster quam Eurus
Gusts 18.0 mph

Hodie
High -- | Low -- °F
--% Chance of Precip.
Yesterday
High -- | Low -- °F
Precip. -- in
Pressio 29.88 in
Visibilitas 10.0 milia passuum
Clouds Plerumque Nubila 17000 ft
Aequaliter Nubila 25000 ft
Frigus in quo Ros apparet 28 °F
Umor 39%
Rainfall 0.00 in
Snow Depth Not available.
7:17 AM 4:59 PM
Waxing Crescent, 9% visible
METAR KYNG 211651Z 21013G24KT 10SM BKN170 OVC250 10/M03 A2986 RMK AO2 PK WND 23034/1558 SLP116 T01001033
Pressio 29.88 in
Visibilitas 10.0 milia passuum
Clouds Plerumque Nubila 17000 ft
Aequaliter Nubila 25000 ft
Frigus in quo Ros apparet 28 °F
Umor 39%
Rainfall 0.00 in
Snow Depth Not available.
7:17 AM 4:59 PM
Waxing Crescent, 9% visible
METAR KYNG 211651Z 21013G24KT 10SM BKN170 OVC250 10/M03 A2986 RMK AO2 PK WND 23034/1558 SLP116 T01001033

Get Severe Weather Alerts

Thanks for signing up!

Be on the lookout for a verification email in your inbox.

You'll start receiving the daily forecast at 6 AM.

×

10-Day Weather Forecast

Almanac

Astronomy

Nov. 21, 2017 Rise Set
Actual Time
Civil Twilight
Nautical Twilight
Astronomical Twilight
Moon
Length Of Visible Light
Length of Day
Tomorrow will be .
, % of the Moon is Illuminated

Today's Extremes

State Highs State Lows

Community

WunderPhotos

Category 6

Welcome to Category 6. This is the collective home for Weather Underground's featured writeups by Dr. Jeff Masters (right), Bob Henson (left), Chris Burt, and other regular contributors.

Nearby

Air Quality

  Air Quality AQ Index Pollutant
Not available.

Snow Depth

Station Depth Elevation

Earthquake Activity

City Distance Mag. Time & Date
Minimum magnitude displayed is 2.5.

Coastal Water Temperatures

Locus Calor

Stations

Nearby Weather Stations

Station Location Temp Frigus Venti Frigus in quo Ros apparet Umor Ventus Precip. Elev Renovata Type
                   

Watches & Warnings

There are currently no watches in effect.